Time;durP1;ratioP1;P1;durP2;ratioP2;P2;SDS_P1;SDS_P2;PMS_P1;PMS_P2;Temp;Humidity;BMP_temperature;BMP_pressure;BME280_temperature;BME280_humidity;BME280_pressure;Samples;Min_cycle;Max_cycle;Signal;HPM_P1;HPM_P2
2023/06/28 00:00:55;;;;;;;2.28;1.00;;;18.20;64.50;;;;;;5135721;27;20042;-67
2023/06/28 00:03:21;;;;;;;4.60;0.93;;;18.20;64.00;;;;;;5116597;27;20035;-67
2023/06/28 00:05:47;;;;;;;1.65;1.10;;;18.30;64.10;;;;;;5135726;27;20034;-67
2023/06/28 00:08:13;;;;;;;1.88;1.10;;;18.30;63.90;;;;;;5135535;27;20110;-67
2023/06/28 00:10:38;;;;;;;1.48;1.02;;;18.20;63.30;;;;;;5135989;27;20443;-67
2023/06/28 00:13:04;;;;;;;5.13;1.38;;;18.30;63.80;;;;;;5135312;27;20023;-67
2023/06/28 00:15:29;;;;;;;4.85;1.23;;;18.30;64.10;;;;;;5135808;27;20468;-67
2023/06/28 00:17:55;;;;;;;1.65;1.00;;;18.30;63.70;;;;;;5135171;27;20103;-67
2023/06/28 00:20:21;;;;;;;3.80;1.17;;;18.30;63.80;;;;;;5135787;27;20023;-67
2023/06/28 00:22:46;;;;;;;1.23;0.90;;;18.20;63.60;;;;;;5135421;27;20102;-67
2023/06/28 00:25:12;;;;;;;2.78;0.80;;;18.20;63.30;;;;;;5135137;27;20045;-67
2023/06/28 00:27:38;;;;;;;3.67;0.95;;;18.20;63.70;;;;;;5135895;27;20088;-66
2023/06/28 00:30:04;;;;;;;3.80;1.30;;;18.20;63.50;;;;;;5135198;27;20435;-66
2023/06/28 00:32:29;;;;;;;5.55;1.30;;;18.20;63.80;;;;;;5135234;27;20483;-66
2023/06/28 00:34:55;;;;;;;3.45;1.20;;;18.20;64.20;;;;;;5135124;27;20062;-67
2023/06/28 00:37:21;;;;;;;8.88;1.75;;;18.20;65.20;;;;;;5135482;27;20027;-66
2023/06/28 00:39:47;;;;;;;6.25;1.73;;;18.20;65.30;;;;;;5135393;27;20379;-67
2023/06/28 00:42:12;;;;;;;2.08;1.17;;;18.20;66.30;;;;;;5134988;27;20023;-67
2023/06/28 00:44:38;;;;;;;2.38;1.10;;;18.30;64.40;;;;;;5134947;27;20035;-67
2023/06/28 00:47:06;;;;;;;1.20;0.93;;;18.30;64.10;;;;;;5134596;27;20487;-67
2023/06/28 00:49:34;;;;;;;2.15;1.20;;;18.30;64.20;;;;;;5134959;27;20479;-67
2023/06/28 00:52:01;;;;;;;3.70;1.20;;;18.30;64.10;;;;;;5134855;27;20080;-67
2023/06/28 00:54:26;;;;;;;3.00;1.15;;;18.30;64.50;;;;;;5134868;27;20061;-67
2023/06/28 00:56:52;;;;;;;2.28;1.42;;;18.20;64.70;;;;;;5135088;27;20395;-67
2023/06/28 00:59:18;;;;;;;1.40;1.10;;;18.20;64.70;;;;;;5134592;27;20428;-67
2023/06/28 01:01:44;;;;;;;1.80;1.05;;;18.10;64.30;;;;;;5134974;27;20059;-66
2023/06/28 01:04:13;;;;;;;5.20;1.20;;;18.10;65.10;;;;;;5134427;27;20062;-66
2023/06/28 01:06:40;;;;;;;3.70;1.25;;;18.10;64.70;;;;;;5130098;27;20027;-66
2023/06/28 01:09:08;;;;;;;2.30;1.40;;;18.10;65.10;;;;;;5134158;27;20026;-66
2023/06/28 01:11:34;;;;;;;3.30;1.00;;;18.10;65.20;;;;;;5134820;27;20128;-66
2023/06/28 01:14:02;;;;;;;1.55;0.95;;;18.10;65.80;;;;;;5133934;27;20035;-66
2023/06/28 01:16:27;;;;;;;2.35;1.13;;;18.00;65.90;;;;;;5134752;27;20023;-67
2023/06/28 01:18:54;;;;;;;1.85;1.38;;;18.00;65.80;;;;;;5134620;27;20115;-67
2023/06/28 01:21:22;;;;;;;1.23;1.13;;;18.00;66.70;;;;;;5115818;27;20122;-67
2023/06/28 01:23:48;;;;;;;3.03;1.40;;;18.00;68.10;;;;;;5134521;27;20114;-67
2023/06/28 01:26:16;;;;;;;5.72;1.30;;;17.90;68.80;;;;;;5133879;27;20024;-67
2023/06/28 01:28:44;;;;;;;3.95;1.55;;;17.90;69.60;;;;;;5134376;27;20043;-67
2023/06/28 01:31:11;;;;;;;2.55;1.17;;;17.90;70.20;;;;;;5115671;27;20023;-65
2023/06/28 01:33:38;;;;;;;2.80;1.40;;;17.90;70.70;;;;;;5134306;27;20454;-67
2023/06/28 01:36:04;;;;;;;2.47;1.30;;;17.90;71.00;;;;;;5133920;27;20031;-65
2023/06/28 01:38:31;;;;;;;4.03;1.20;;;17.90;71.70;;;;;;5134197;27;20230;-66
2023/06/28 01:40:58;;;;;;;1.88;1.17;;;17.90;71.30;;;;;;5133982;27;20451;-67
2023/06/28 01:43:25;;;;;;;3.35;1.00;;;17.80;70.90;;;;;;5130703;27;20031;-67
2023/06/28 01:45:51;;;;;;;2.13;1.13;;;17.80;72.30;;;;;;5134102;27;20118;-66
2023/06/28 01:48:17;;;;;;;5.10;1.23;;;17.80;73.00;;;;;;5133818;27;20023;-66
2023/06/28 01:50:44;;;;;;;2.70;1.30;;;17.70;72.90;;;;;;5133974;27;20076;-67
2023/06/28 01:53:09;;;;;;;2.63;1.30;;;17.80;73.10;;;;;;5133367;27;20383;-66
2023/06/28 01:55:35;;;;;;;3.53;1.73;;;17.80;73.70;;;;;;5133834;27;20023;-67
2023/06/28 01:58:00;;;;;;;2.50;1.33;;;17.70;73.90;;;;;;5133390;27;20030;-68
2023/06/28 02:00:26;;;;;;;2.35;1.05;;;17.60;74.10;;;;;;5134174;27;20030;-67
2023/06/28 02:02:53;;;;;;;5.78;1.40;;;17.60;74.50;;;;;;5133945;27;20444;-67
2023/06/28 02:05:19;;;;;;;9.48;1.75;;;17.50;75.50;;;;;;5133447;27;20042;-67
2023/06/28 02:07:45;;;;;;;4.63;1.30;;;17.50;75.80;;;;;;5133752;27;20118;-67
2023/06/28 02:10:11;;;;;;;2.47;1.50;;;17.50;75.90;;;;;;5133156;27;20103;-67
2023/06/28 02:12:36;;;;;;;1.90;1.25;;;17.40;76.40;;;;;;5133941;27;20118;-67
2023/06/28 02:15:04;;;;;;;4.97;1.75;;;17.40;76.90;;;;;;5133432;28;20482;-67
2023/06/28 02:17:30;;;;;;;9.40;1.73;;;17.30;76.90;;;;;;5133703;28;20055;-67
2023/06/28 02:19:57;;;;;;;3.83;1.42;;;17.30;76.70;;;;;;5133753;28;20070;-67
2023/06/28 02:22:22;;;;;;;3.67;1.35;;;17.20;77.00;;;;;;5133012;28;20027;-66
2023/06/28 02:24:48;;;;;;;4.50;1.40;;;17.20;76.80;;;;;;5133615;28;20429;-67
2023/06/28 02:27:14;;;;;;;5.15;1.40;;;17.20;77.00;;;;;;5136219;27;20050;-67
2023/06/28 02:29:40;;;;;;;5.18;1.33;;;17.10;76.90;;;;;;5137956;27;20023;-67
2023/06/28 02:32:06;;;;;;;2.90;1.10;;;17.10;76.30;;;;;;5137383;27;20050;-67
2023/06/28 02:34:32;;;;;;;3.35;1.27;;;17.10;74.80;;;;;;5137832;27;20106;-66
2023/06/28 02:36:58;;;;;;;3.60;1.10;;;17.10;74.30;;;;;;5137835;27;20062;-66
2023/06/28 02:39:24;;;;;;;1.98;1.08;;;17.10;74.30;;;;;;5137331;27;20015;-66
2023/06/28 02:41:50;;;;;;;1.90;0.82;;;17.10;74.30;;;;;;5137675;27;20076;-66
2023/06/28 02:44:15;;;;;;;3.38;1.17;;;17.10;74.40;;;;;;5137113;27;20031;-66
2023/06/28 02:46:41;;;;;;;2.45;1.33;;;17.10;74.70;;;;;;5136997;27;20043;-66
2023/06/28 02:49:07;;;;;;;2.03;1.25;;;17.10;75.10;;;;;;5136915;27;20050;-66
2023/06/28 02:51:32;;;;;;;3.95;1.50;;;17.10;75.30;;;;;;5137484;27;20080;-66
2023/06/28 02:53:59;;;;;;;3.40;1.05;;;17.10;75.50;;;;;;5137524;27;20106;-66
2023/06/28 02:56:25;;;;;;;6.93;1.50;;;17.10;75.90;;;;;;5137110;27;20052;-66
2023/06/28 02:58:51;;;;;;;3.20;1.30;;;17.10;76.20;;;;;;5137394;27;20035;-66
2023/06/28 03:01:17;;;;;;;4.15;1.40;;;17.00;76.60;;;;;;5137073;27;20459;-66
2023/06/28 03:03:43;;;;;;;2.67;1.48;;;17.00;77.20;;;;;;5137201;27;20041;-66
2023/06/28 03:06:09;;;;;;;6.25;1.65;;;17.00;77.80;;;;;;5136814;27;20027;-66
2023/06/28 03:08:35;;;;;;;5.25;1.33;;;17.00;78.40;;;;;;5137172;27;20106;-66
2023/06/28 03:11:00;;;;;;;2.45;1.48;;;17.00;79.30;;;;;;5137179;27;20031;-66
2023/06/28 03:13:26;;;;;;;4.00;1.58;;;17.00;80.60;;;;;;5133632;27;20035;-67
2023/06/28 03:15:51;;;;;;;5.07;1.50;;;16.90;82.20;;;;;;5137002;27;20079;-67
2023/06/28 03:18:17;;;;;;;3.03;1.70;;;16.80;83.70;;;;;;5136663;27;20020;-66
2023/06/28 03:20:43;;;;;;;3.15;1.40;;;16.70;85.10;;;;;;5136917;27;20027;-68
2023/06/28 03:23:08;;;;;;;4.10;1.58;;;16.60;86.20;;;;;;5136717;27;20023;-67
2023/06/28 03:25:34;;;;;;;3.88;1.85;;;16.50;87.10;;;;;;5136544;27;20034;-66
2023/06/28 03:28:00;;;;;;;2.42;1.52;;;16.50;88.00;;;;;;5136842;27;20387;-66
2023/06/28 03:30:26;;;;;;;4.47;1.90;;;16.50;88.60;;;;;;5136138;27;20035;-66
2023/06/28 03:32:52;;;;;;;4.75;1.55;;;16.40;89.60;;;;;;5136831;27;20031;-67
2023/06/28 03:35:17;;;;;;;3.50;1.55;;;16.30;90.30;;;;;;5136205;27;20451;-67
2023/06/28 03:37:50;;;;;;;1.90;1.50;;;16.40;90.70;;;;;;5134874;27;20034;-67
2023/06/28 03:40:16;;;;;;;4.95;1.75;;;16.30;91.30;;;;;;5135788;27;20034;-67
2023/06/28 03:42:42;;;;;;;2.35;1.55;;;16.20;91.90;;;;;;5133089;27;20015;-67
2023/06/28 03:45:09;;;;;;;2.63;1.60;;;16.10;92.10;;;;;;5136042;27;20035;-68
2023/06/28 03:47:34;;;;;;;3.05;1.60;;;16.00;92.40;;;;;;5136020;27;20118;-67
2023/06/28 03:50:00;;;;;;;2.38;1.60;;;16.00;92.80;;;;;;5136430;27;20102;-67
2023/06/28 03:52:25;;;;;;;2.25;1.38;;;16.00;93.10;;;;;;5135677;27;20417;-67
2023/06/28 03:54:52;;;;;;;2.85;1.60;;;16.00;93.20;;;;;;5117912;27;20026;-67
2023/06/28 03:57:20;;;;;;;2.35;1.58;;;15.90;94.00;;;;;;5135826;27;20027;-66
2023/06/28 03:59:46;;;;;;;2.97;1.92;;;15.90;94.50;;;;;;5136258;27;20019;-67
2023/06/28 04:02:12;;;;;;;6.07;2.17;;;15.80;95.40;;;;;;5135822;27;20031;-67
2023/06/28 04:04:37;;;;;;;3.45;1.70;;;15.70;95.80;;;;;;5136297;27;20059;-67
2023/06/28 04:07:03;;;;;;;4.82;1.63;;;15.70;96.50;;;;;;5136090;27;20024;-67
2023/06/28 04:09:29;;;;;;;2.72;1.52;;;15.60;97.50;;;;;;5135691;27;20027;-67
2023/06/28 04:11:55;;;;;;;2.53;1.65;;;15.60;98.30;;;;;;5135733;27;20023;-67
2023/06/28 04:14:23;;;;;;;5.30;2.13;;;15.50;99.20;;;;;;5135155;27;20503;-66
2023/06/28 04:16:48;;;;;;;5.75;2.38;;;15.50;99.90;;;;;;5135837;27;20026;-67
2023/06/28 04:19:14;;;;;;;3.63;1.65;;;15.40;99.90;;;;;;5116773;27;20019;-68
2023/06/28 04:21:40;;;;;;;5.80;2.20;;;15.40;99.90;;;;;;5135589;27;20027;-67
2023/06/28 04:24:05;;;;;;;3.30;1.77;;;15.30;99.90;;;;;;5135729;27;20059;-67
2023/06/28 04:26:31;;;;;;;5.13;2.45;;;15.30;99.90;;;;;;5135532;27;20023;-67
2023/06/28 04:28:57;;;;;;;6.85;2.22;;;15.30;99.90;;;;;;5135661;27;20083;-66
2023/06/28 04:31:23;;;;;;;5.43;1.95;;;15.40;99.90;;;;;;5135277;27;20027;-68
2023/06/28 04:33:49;;;;;;;3.40;2.10;;;15.40;99.90;;;;;;5135443;27;20130;-67
2023/06/28 04:36:21;;;;;;;4.97;2.20;;;15.30;99.90;;;;;;5135048;27;20098;-66
2023/06/28 04:38:52;;;;;;;4.40;1.85;;;15.30;99.90;;;;;;5135634;27;20595;-66
2023/06/28 04:41:27;;;;;;;;;;;15.30;99.90;;;;;;5135103;27;20429;-67
2023/06/28 04:43:56;;;;;;;3.20;2.00;;;15.30;99.90;;;;;;5134933;27;19918;-66
2023/06/28 04:46:28;;;;;;;1.90;1.60;;;15.40;99.90;;;;;;5134823;27;20129;-67
2023/06/28 04:48:55;;;;;;;2.83;1.63;;;15.30;99.90;;;;;;5135097;27;20115;-66
2023/06/28 04:51:21;;;;;;;3.60;1.90;;;15.40;99.90;;;;;;5134756;27;20417;-66
2023/06/28 04:53:47;;;;;;;4.05;1.80;;;15.40;99.90;;;;;;5134956;27;20031;-67
2023/06/28 04:56:16;;;;;;;4.25;2.10;;;15.40;99.90;;;;;;5134421;27;20476;-67
2023/06/28 04:58:43;;;;;;;4.03;1.92;;;15.40;99.90;;;;;;5134991;27;20027;-66
2023/06/28 05:01:09;;;;;;;5.53;2.20;;;15.40;99.90;;;;;;5135060;27;20128;-66
2023/06/28 05:03:35;;;;;;;7.85;2.10;;;15.50;99.90;;;;;;5134459;27;20027;-66
2023/06/28 05:06:02;;;;;;;3.65;1.98;;;15.50;99.90;;;;;;5134942;27;20027;-66
2023/06/28 05:08:28;;;;;;;4.13;1.88;;;15.60;99.90;;;;;;5134108;27;20455;-66
2023/06/28 05:10:53;;;;;;;2.92;1.88;;;15.60;99.90;;;;;;5134511;27;20027;-66
2023/06/28 05:13:20;;;;;;;2.65;1.90;;;15.60;99.90;;;;;;5134028;27;20023;-67
2023/06/28 05:15:46;;;;;;;3.75;1.67;;;15.60;99.90;;;;;;5118092;27;20325;-66
2023/06/28 05:18:12;;;;;;;2.90;1.63;;;15.70;99.90;;;;;;5113882;28;20432;-66
2023/06/28 05:20:38;;;;;;;2.40;1.80;;;15.80;99.90;;;;;;5114784;27;20054;-67
2023/06/28 05:23:10;;;;;;;5.80;2.28;;;15.80;99.90;;;;;;5113907;28;20026;-67
2023/06/28 05:25:36;;;;;;;3.60;1.80;;;15.80;99.90;;;;;;5113489;28;20033;-66
2023/06/28 05:28:02;;;;;;;3.65;2.17;;;15.90;99.90;;;;;;5113838;28;20028;-65
2023/06/28 05:30:27;;;;;;;4.57;1.80;;;15.80;99.90;;;;;;5113442;28;20028;-67
2023/06/28 05:32:53;;;;;;;2.28;1.55;;;15.80;99.90;;;;;;5113859;28;20435;-67
2023/06/28 05:35:19;;;;;;;2.88;1.70;;;15.80;99.90;;;;;;5113361;28;20053;-67
2023/06/28 05:37:44;;;;;;;2.92;1.63;;;15.80;99.90;;;;;;5116563;27;20502;-67
2023/06/28 05:40:10;;;;;;;2.85;1.80;;;15.90;99.90;;;;;;5113558;28;20115;-66
2023/06/28 05:42:36;;;;;;;2.60;1.92;;;15.90;99.90;;;;;;5113162;28;20032;-66
2023/06/28 05:45:01;;;;;;;6.40;1.70;;;16.00;99.90;;;;;;5113065;28;20031;-66
2023/06/28 05:47:27;;;;;;;3.47;1.83;;;16.10;99.90;;;;;;5113418;28;20100;-66
2023/06/28 05:49:52;;;;;;;3.63;1.90;;;16.40;99.60;;;;;;5113434;28;20050;-67
2023/06/28 05:52:18;;;;;;;1.63;1.33;;;16.60;98.20;;;;;;5113095;28;20019;-67
2023/06/28 05:54:44;;;;;;;2.72;1.55;;;16.80;98.10;;;;;;5113269;28;20034;-67
2023/06/28 05:57:09;;;;;;;2.15;1.30;;;16.70;97.00;;;;;;5113238;28;20028;-67
2023/06/28 05:59:35;;;;;;;1.58;1.20;;;16.70;96.50;;;;;;5112740;28;20051;-67
2023/06/28 06:02:00;;;;;;;3.67;1.67;;;16.70;96.90;;;;;;5112744;28;20100;-67
2023/06/28 06:04:26;;;;;;;4.03;1.30;;;16.70;96.90;;;;;;5112676;28;20161;-67
2023/06/28 06:06:52;;;;;;;3.90;1.50;;;17.30;96.70;;;;;;5113215;28;20081;-67
2023/06/28 06:09:17;;;;;;;1.30;1.17;;;17.70;94.60;;;;;;5112570;28;20027;-75
2023/06/28 06:11:43;;;;;;;1.70;1.10;;;17.60;93.90;;;;;;5113207;28;20148;-67
2023/06/28 06:14:09;;;;;;;1.23;1.13;;;18.20;92.90;;;;;;5112976;28;20031;-67
2023/06/28 06:16:34;;;;;;;1.77;1.48;;;18.30;91.60;;;;;;5112822;28;20028;-69
2023/06/28 06:19:00;;;;;;;4.95;1.50;;;18.50;91.20;;;;;;5112867;28;20070;-67
2023/06/28 06:21:25;;;;;;;4.15;1.23;;;18.60;90.20;;;;;;5113023;28;20437;-67
2023/06/28 06:23:54;;;;;;;3.33;1.25;;;19.00;88.40;;;;;;5113028;28;20035;-67
2023/06/28 06:26:20;;;;;;;1.75;1.17;;;19.80;86.00;;;;;;5112697;28;20027;-68
2023/06/28 06:28:45;;;;;;;4.78;1.20;;;19.80;82.10;;;;;;5113018;28;20361;-66
2023/06/28 06:31:13;;;;;;;2.88;1.20;;;19.40;82.70;;;;;;5112666;28;20028;-66
2023/06/28 06:33:40;;;;;;;1.88;1.13;;;19.00;84.70;;;;;;5112697;28;20344;-66
2023/06/28 06:36:05;;;;;;;3.22;1.25;;;18.70;86.00;;;;;;5112865;28;20042;-67
2023/06/28 06:38:31;;;;;;;2.75;1.08;;;18.40;87.60;;;;;;5112199;28;20023;-66
2023/06/28 06:40:56;;;;;;;3.60;1.42;;;18.00;88.70;;;;;;5112940;28;20034;-67
2023/06/28 06:43:22;;;;;;;2.75;1.35;;;18.60;90.20;;;;;;5112077;28;20047;-65
2023/06/28 06:45:48;;;;;;;2.30;1.10;;;19.90;84.70;;;;;;5112788;28;20075;-67
2023/06/28 06:48:13;;;;;;;1.20;1.10;;;20.90;79.50;;;;;;5112568;28;20081;-67
2023/06/28 06:50:39;;;;;;;2.75;1.10;;;21.30;76.50;;;;;;5112486;28;20483;-67
2023/06/28 06:53:05;;;;;;;1.45;1.10;;;21.60;75.00;;;;;;5112559;28;20019;-67
2023/06/28 06:55:32;;;;;;;1.42;1.00;;;21.30;73.50;;;;;;5112487;28;20120;-66
2023/06/28 06:57:57;;;;;;;2.60;1.27;;;21.20;74.10;;;;;;5112782;28;20112;-67
2023/06/28 07:00:24;;;;;;;2.83;1.20;;;22.00;73.10;;;;;;5093861;28;20070;-68
2023/06/28 07:02:50;;;;;;;2.90;1.23;;;22.60;69.20;;;;;;5112699;28;20028;-67
2023/06/28 07:05:15;;;;;;;2.63;1.42;;;23.30;66.50;;;;;;5112613;28;20027;-67
2023/06/28 07:07:42;;;;;;;1.33;1.10;;;23.70;65.20;;;;;;5112299;28;20027;-68
2023/06/28 07:10:08;;;;;;;1.70;1.00;;;24.00;62.20;;;;;;5119650;28;20027;-67
2023/06/28 07:12:34;;;;;;;1.70;1.10;;;24.30;60.60;;;;;;5134041;27;20494;-68
2023/06/28 07:15:00;;;;;;;1.40;1.17;;;24.30;60.80;;;;;;5137148;27;20119;-67
2023/06/28 07:17:25;;;;;;;1.40;1.17;;;24.60;58.90;;;;;;5136781;27;20027;-68
2023/06/28 07:19:51;;;;;;;1.25;1.05;;;24.70;58.20;;;;;;5136875;27;20543;-67
2023/06/28 07:22:17;;;;;;;2.03;0.90;;;24.90;57.20;;;;;;5136974;27;20034;-67
2023/06/28 07:24:42;;;;;;;2.15;1.27;;;24.70;56.70;;;;;;5136440;27;20221;-66
2023/06/28 07:27:08;;;;;;;3.90;1.30;;;24.50;57.40;;;;;;5136822;27;20023;-67
2023/06/28 07:29:34;;;;;;;1.77;0.98;;;24.70;56.30;;;;;;5123837;27;20490;-68
2023/06/28 07:31:59;;;;;;;1.95;1.17;;;24.60;56.80;;;;;;5116335;28;20023;-67
2023/06/28 07:34:25;;;;;;;2.67;0.90;;;24.50;56.80;;;;;;5115775;28;20031;-68
2023/06/28 07:36:50;;;;;;;2.78;1.10;;;24.60;57.20;;;;;;5116196;28;20106;-67
2023/06/28 07:39:16;;;;;;;1.77;0.80;;;24.90;57.30;;;;;;5097831;28;20024;-67
2023/06/28 07:41:42;;;;;;;2.30;0.80;;;24.90;56.70;;;;;;5117915;27;20027;-68
2023/06/28 07:44:07;;;;;;;1.88;1.65;;;24.80;55.30;;;;;;5097475;28;20437;-67
2023/06/28 07:46:33;;;;;;;1.33;1.00;;;24.90;54.40;;;;;;5115465;28;20093;-66
2023/06/28 07:49:01;;;;;;;3.58;1.10;;;25.00;53.60;;;;;;5115513;28;20080;-66
2023/06/28 07:51:27;;;;;;;5.13;1.20;;;25.00;54.80;;;;;;5115108;28;20407;-66
2023/06/28 07:53:52;;;;;;;1.77;0.90;;;25.30;54.10;;;;;;5115390;28;20023;-66
2023/06/28 07:56:19;;;;;;;2.13;1.10;;;25.30;54.30;;;;;;5115649;28;20107;-67
2023/06/28 07:58:45;;;;;;;4.43;1.10;;;25.00;53.20;;;;;;5115193;28;20019;-67
2023/06/28 08:01:11;;;;;;;1.70;0.90;;;24.70;53.10;;;;;;5115467;28;20028;-67
2023/06/28 08:03:36;;;;;;;2.13;1.08;;;24.50;53.70;;;;;;5115124;28;20043;-66
2023/06/28 08:06:02;;;;;;;1.67;1.00;;;24.70;53.20;;;;;;5115342;28;20161;-67
2023/06/28 08:08:28;;;;;;;1.45;0.82;;;24.90;52.20;;;;;;5114844;28;20108;-68
2023/06/28 08:10:53;;;;;;;2.92;1.30;;;24.40;52.20;;;;;;5115131;28;20047;-67
2023/06/28 08:13:19;;;;;;;1.98;1.10;;;24.40;54.10;;;;;;5115426;28;20098;-67
2023/06/28 08:15:45;;;;;;;2.38;0.93;;;24.50;54.60;;;;;;5115152;28;20062;-67
2023/06/28 08:18:10;;;;;;;1.33;1.00;;;24.50;53.30;;;;;;5096904;28;20383;-67
2023/06/28 08:20:37;;;;;;;1.52;0.90;;;24.10;54.40;;;;;;5114890;28;20023;-67
2023/06/28 08:23:03;;;;;;;1.00;0.82;;;23.70;55.10;;;;;;5097002;28;20023;-68
2023/06/28 08:25:28;;;;;;;1.50;1.08;;;23.60;55.50;;;;;;5113722;28;20142;-68
2023/06/28 08:27:54;;;;;;;2.17;1.08;;;23.60;56.20;;;;;;5115041;28;20030;-68
2023/06/28 08:30:20;;;;;;;2.33;1.20;;;23.30;55.70;;;;;;5115028;28;20031;-67
2023/06/28 08:32:45;;;;;;;1.33;0.93;;;23.10;57.20;;;;;;5114580;28;20316;-66
2023/06/28 08:35:11;;;;;;;1.88;0.95;;;23.20;57.30;;;;;;5114907;28;20028;-66
2023/06/28 08:37:37;;;;;;;3.03;1.20;;;23.10;57.90;;;;;;5114520;28;20055;-66
2023/06/28 08:40:05;;;;;;;3.38;1.20;;;22.70;58.00;;;;;;5115112;28;20023;-66
2023/06/28 08:42:33;;;;;;;2.58;1.10;;;22.50;58.10;;;;;;5114204;28;20071;-67
2023/06/28 08:45:01;;;;;;;4.55;0.90;;;22.30;58.30;;;;;;5114728;28;20031;-66
2023/06/28 08:47:31;;;;;;;2.10;1.25;;;22.10;60.20;;;;;;5114262;28;20047;-67
2023/06/28 08:49:58;;;;;;;1.55;0.98;;;22.20;58.70;;;;;;5115002;28;20084;-67
2023/06/28 08:52:24;;;;;;;1.65;1.10;;;22.00;59.10;;;;;;5114650;28;20038;-67
2023/06/28 08:54:51;;;;;;;1.38;1.10;;;21.80;60.00;;;;;;5114200;28;20110;-67
2023/06/28 08:57:17;;;;;;;1.92;1.05;;;21.90;61.10;;;;;;5114457;28;20034;-67
2023/06/28 08:59:44;;;;;;;1.30;1.20;;;21.80;61.20;;;;;;5114019;28;20027;-67
2023/06/28 09:02:13;;;;;;;1.10;1.00;;;21.80;61.60;;;;;;5114628;28;20432;-67
2023/06/28 09:04:39;;;;;;;1.75;1.10;;;21.70;61.80;;;;;;5113517;28;20077;-67
2023/06/28 09:07:05;;;;;;;2.22;1.05;;;21.80;61.80;;;;;;5117240;27;20027;-66
2023/06/28 09:09:32;;;;;;;3.40;1.30;;;21.70;61.60;;;;;;5134375;27;20023;-66
2023/06/28 09:11:58;;;;;;;5.32;1.33;;;21.80;62.00;;;;;;5134520;27;20333;-66
2023/06/28 09:14:24;;;;;;;1.73;1.20;;;21.80;62.50;;;;;;5134338;27;20030;-66
2023/06/28 09:16:49;;;;;;;2.05;1.02;;;21.90;62.10;;;;;;5134183;27;20023;-66
2023/06/28 09:19:15;;;;;;;1.27;1.08;;;22.00;61.40;;;;;;5134565;27;20019;-68
2023/06/28 09:21:41;;;;;;;3.38;1.23;;;22.00;60.10;;;;;;5134145;27;20023;-68
2023/06/28 09:24:13;;;;;;;6.05;1.35;;;22.10;60.90;;;;;;5134296;27;20519;-67
2023/06/28 09:26:41;;;;;;;1.75;0.95;;;22.00;60.60;;;;;;5134006;27;20357;-67
2023/06/28 09:29:09;;;;;;;2.03;1.20;;;22.10;61.30;;;;;;5134228;27;20050;-68
2023/06/28 09:31:39;;;;;;;4.18;1.50;;;22.20;60.70;;;;;;5134062;27;20019;-68
2023/06/28 09:34:05;;;;;;;2.88;1.05;;;22.20;63.70;;;;;;5120706;27;20392;-67
2023/06/28 09:36:37;;;;;;;3.28;1.10;;;22.30;61.30;;;;;;5114716;27;20031;-67
2023/06/28 09:39:12;;;;;;;1.50;1.10;;;22.40;61.50;;;;;;5114115;28;20023;-66
2023/06/28 09:41:39;;;;;;;2.05;0.98;;;22.30;60.90;;;;;;5112980;28;20464;-66
2023/06/28 09:44:06;;;;;;;2.63;1.15;;;22.30;61.80;;;;;;5113439;28;20039;-67
2023/06/28 09:46:33;;;;;;;2.22;1.20;;;22.30;61.50;;;;;;5113112;28;20051;-66
2023/06/28 09:48:59;;;;;;;1.73;1.20;;;22.30;62.00;;;;;;5113493;28;20019;-67
2023/06/28 09:51:25;;;;;;;3.90;1.08;;;22.30;62.00;;;;;;5113361;28;20110;-67
2023/06/28 09:53:53;;;;;;;2.22;1.20;;;22.30;61.70;;;;;;5112923;28;20042;-67
2023/06/28 09:56:38;;;;;;;4.65;1.52;;;22.20;61.20;;;;;;5113434;28;20106;-67
2023/06/28 09:59:08;;;;;;;3.22;1.10;;;22.40;60.90;;;;;;5094306;28;20124;-67
2023/06/28 10:01:38;;;;;;;4.43;1.35;;;22.40;59.80;;;;;;5112872;28;20065;-75
2023/06/28 10:04:07;;;;;;;3.20;1.20;;;22.40;59.90;;;;;;5113595;28;20039;-66
2023/06/28 10:06:35;;;;;;;3.17;1.20;;;22.40;61.00;;;;;;5112895;28;20110;-67
2023/06/28 10:09:01;;;;;;;1.52;1.08;;;22.50;61.70;;;;;;5113133;28;20035;-66
2023/06/28 10:11:31;;;;;;;3.90;1.40;;;22.50;61.30;;;;;;5113202;28;20093;-67
2023/06/28 10:13:58;;;;;;;2.13;1.15;;;22.50;60.70;;;;;;5112820;28;20074;-66
2023/06/28 10:16:31;;;;;;;2.72;1.30;;;22.50;60.80;;;;;;5113102;28;20390;-67
2023/06/28 10:18:58;;;;;;;3.45;1.90;;;22.50;60.50;;;;;;5112672;28;20072;-67
2023/06/28 10:21:24;;;;;;;3.13;1.67;;;22.50;60.70;;;;;;5113162;28;20028;-67
2023/06/28 10:23:51;;;;;;;2.65;1.40;;;22.50;60.10;;;;;;5112819;28;20077;-67
2023/06/28 10:26:19;;;;;;;3.50;1.85;;;22.60;59.70;;;;;;5112835;28;20034;-67
2023/06/28 10:28:45;;;;;;;1.67;1.38;;;22.60;60.20;;;;;;5112570;28;20468;-67
2023/06/28 10:31:12;;;;;;;2.05;1.20;;;22.60;60.10;;;;;;5112496;28;20498;-67
2023/06/28 10:33:38;;;;;;;1.80;1.30;;;22.60;60.40;;;;;;5112559;28;20042;-68
2023/06/28 10:36:04;;;;;;;2.92;1.50;;;22.50;60.30;;;;;;5113047;28;20451;-66
2023/06/28 10:38:45;;;;;;;3.33;1.40;;;22.60;60.90;;;;;;5112861;28;20440;-66
2023/06/28 10:41:19;;;;;;;1.75;1.38;;;22.60;59.90;;;;;;5113104;28;20111;-66
2023/06/28 10:43:45;;;;;;;2.38;1.25;;;22.80;59.20;;;;;;5112209;28;20039;-66
2023/06/28 10:46:25;;;;;;;2.85;1.30;;;22.80;59.90;;;;;;5112836;28;20051;-67
2023/06/28 10:48:55;;;;;;;1.77;1.52;;;22.80;59.20;;;;;;5116267;28;20036;-67
2023/06/28 10:51:24;;;;;;;1.23;1.13;;;22.80;59.20;;;;;;5116812;28;20510;-67
2023/06/28 10:53:53;;;;;;;4.95;1.98;;;22.80;59.50;;;;;;5116408;28;20035;-67
2023/06/28 10:56:19;;;;;;;1.40;1.27;;;22.80;59.40;;;;;;5116786;28;20032;-67
2023/06/28 10:58:47;;;;;;;2.15;1.48;;;22.70;58.00;;;;;;5116373;28;20074;-68
2023/06/28 11:01:38;;;;;;;3.50;1.70;;;22.70;57.10;;;;;;5116568;28;20456;-66
2023/06/28 11:04:25;;;;;;;1.85;1.50;;;22.50;56.80;;;;;;5116419;28;20032;-67
2023/06/28 11:07:02;;;;;;;1.92;1.58;;;22.60;58.80;;;;;;5115978;28;20040;-67
2023/06/28 11:09:29;;;;;;;2.10;1.20;;;22.70;59.10;;;;;;5119770;27;20028;-67
2023/06/28 11:11:56;;;;;;;2.38;1.20;;;22.80;59.80;;;;;;5115813;28;20073;-67
2023/06/28 11:14:30;;;;;;;2.35;1.20;;;22.90;58.90;;;;;;5116412;28;20021;-67
2023/06/28 11:17:10;;;;;;;2.90;1.60;;;22.90;57.70;;;;;;5115933;28;20451;-67
2023/06/28 11:19:38;;;;;;;1.38;1.10;;;22.90;57.30;;;;;;5116470;28;20425;-67
2023/06/28 11:22:04;;;;;;;2.20;1.30;;;22.80;57.40;;;;;;5115888;28;20425;-67
2023/06/28 11:24:33;;;;;;;2.80;1.20;;;22.80;57.30;;;;;;5116219;28;20028;-67
2023/06/28 11:26:58;;;;;;;3.03;1.30;;;22.60;56.60;;;;;;5115803;28;20023;-67
2023/06/28 11:29:24;;;;;;;1.58;1.20;;;22.60;57.00;;;;;;5115874;28;20106;-67
2023/06/28 11:31:51;;;;;;;4.93;1.30;;;22.60;57.20;;;;;;5115636;28;20026;-68
2023/06/28 11:34:19;;;;;;;4.00;1.30;;;22.80;57.30;;;;;;5115874;28;20118;-67
2023/06/28 11:36:47;;;;;;;1.95;1.20;;;22.80;57.00;;;;;;5115549;28;20082;-67
2023/06/28 11:39:17;;;;;;;2.03;1.40;;;22.80;54.50;;;;;;5115747;28;20028;-67
2023/06/28 11:41:43;;;;;;;2.15;1.27;;;22.80;56.50;;;;;;5117192;27;20032;-68
2023/06/28 11:44:11;;;;;;;4.00;1.15;;;22.90;57.20;;;;;;5133559;27;20039;-67
2023/06/28 11:46:38;;;;;;;2.70;1.60;;;22.90;57.20;;;;;;5135868;27;20543;-67
2023/06/28 11:49:04;;;;;;;5.97;1.50;;;22.90;58.10;;;;;;5135942;27;20027;-67
2023/06/28 11:51:33;;;;;;;5.72;1.17;;;22.90;57.20;;;;;;5136199;27;20031;-67
2023/06/28 11:53:59;;;;;;;2.60;1.13;;;22.90;56.80;;;;;;5135741;27;20123;-67
2023/06/28 11:56:33;;;;;;;4.47;1.50;;;23.00;57.00;;;;;;5136175;27;20055;-67
2023/06/28 11:58:59;;;;;;;2.55;1.23;;;23.00;57.40;;;;;;5134261;27;20031;-67
2023/06/28 12:01:25;;;;;;;3.13;1.40;;;22.90;57.20;;;;;;5135843;27;20375;-67
2023/06/28 12:03:51;;;;;;;6.85;1.50;;;23.00;56.90;;;;;;5135100;27;20031;-67
2023/06/28 12:06:16;;;;;;;4.07;1.17;;;22.90;56.50;;;;;;5135957;27;20436;-67
2023/06/28 12:08:42;;;;;;;1.77;1.17;;;22.80;56.70;;;;;;5135847;27;20055;-68
2023/06/28 12:11:10;;;;;;;3.22;1.30;;;22.70;56.30;;;;;;5135470;27;20084;-67
2023/06/28 12:13:36;;;;;;;2.63;1.08;;;22.60;56.80;;;;;;5135817;27;20091;-66
2023/06/28 12:16:21;;;;;;;9.95;1.55;;;22.60;56.70;;;;;;5135544;27;20023;-66
2023/06/28 12:19:00;;;;;;;3.65;1.50;;;22.60;56.00;;;;;;5135361;27;20059;-67
2023/06/28 12:21:28;;;;;;;5.88;1.20;;;22.60;56.80;;;;;;5135950;27;20023;-66
2023/06/28 12:24:10;;;;;;;1.90;1.20;;;22.80;57.50;;;;;;5135071;27;20044;-67
2023/06/28 12:26:36;;;;;;;1.60;1.20;;;22.90;55.20;;;;;;5135576;27;20019;-67
2023/06/28 12:29:01;;;;;;;3.17;1.13;;;22.90;52.10;;;;;;5134963;27;20394;-65
2023/06/28 12:31:40;;;;;;;1.60;0.98;;;22.90;51.80;;;;;;5135427;27;20020;-66
2023/06/28 12:34:05;;;;;;;2.42;1.20;;;22.90;52.10;;;;;;5135132;27;20035;-67
2023/06/28 12:36:33;;;;;;;1.60;1.15;;;22.90;53.30;;;;;;5135599;27;20020;-67
2023/06/28 12:38:59;;;;;;;3.33;1.13;;;22.80;53.40;;;;;;5135037;27;20051;-67
2023/06/28 12:41:25;;;;;;;3.33;1.15;;;22.80;53.50;;;;;;5135052;27;20027;-66
2023/06/28 12:43:56;;;;;;;1.67;1.35;;;22.60;53.60;;;;;;5134871;27;20045;-67
2023/06/28 12:46:22;;;;;;;2.30;1.45;;;22.50;54.40;;;;;;5134668;27;20395;-67